createdAt,value
2018-04-16T00:00:52.733Z,12.67
2018-04-16T00:03:20.235Z,13.80
2018-04-16T00:05:48.547Z,12.20
2018-04-16T00:08:16.102Z,12.80
2018-04-16T00:10:44.724Z,11.27
2018-04-16T00:13:13.030Z,14.40
2018-04-16T00:15:41.179Z,11.00
2018-04-16T00:18:08.846Z,11.37
2018-04-16T00:20:36.628Z,11.40
2018-04-16T00:23:04.607Z,12.03
2018-04-16T00:25:33.025Z,13.10
2018-04-16T00:28:00.573Z,10.67
2018-04-16T00:30:28.173Z,13.87
2018-04-16T00:33:01.279Z,13.23
2018-04-16T00:35:34.390Z,11.77
2018-04-16T00:38:08.370Z,12.50
2018-04-16T00:40:42.612Z,12.07
2018-04-16T00:43:15.495Z,13.53
2018-04-16T00:46:03.174Z,14.30
2018-04-16T00:48:37.203Z,13.17
2018-04-16T00:51:10.382Z,12.73
2018-04-16T00:53:56.274Z,12.50
2018-04-16T00:56:38.751Z,13.17
2018-04-16T00:59:11.995Z,15.37
2018-04-16T01:01:45.031Z,13.23
2018-04-16T01:04:18.273Z,11.20
2018-04-16T01:06:51.409Z,13.60
2018-04-16T01:09:24.668Z,12.30
2018-04-16T01:11:58.226Z,14.10
2018-04-16T01:14:31.859Z,11.53
2018-04-16T01:17:04.995Z,13.67
2018-04-16T01:19:38.120Z,11.03
2018-04-16T01:22:11.863Z,11.73
2018-04-16T01:24:44.985Z,13.20
2018-04-16T01:27:18.121Z,11.37
2018-04-16T01:29:51.165Z,14.00
2018-04-16T01:32:24.516Z,11.93
2018-04-16T01:34:57.700Z,13.90
2018-04-16T01:37:30.834Z,12.37
2018-04-16T01:40:04.615Z,11.37
2018-04-16T01:42:37.698Z,13.13
2018-04-16T01:45:11.642Z,13.03
2018-04-16T01:47:45.966Z,11.73
2018-04-16T01:50:28.415Z,13.03
2018-04-16T01:53:01.765Z,10.83
2018-04-16T01:55:35.680Z,11.07
2018-04-16T01:58:08.810Z,11.80
2018-04-16T02:00:41.959Z,12.50
2018-04-16T02:03:15.042Z,13.43
2018-04-16T02:05:48.182Z,11.77
2018-04-16T02:08:21.322Z,14.00
2018-04-16T02:10:54.882Z,11.50
2018-04-16T02:13:28.852Z,12.67
2018-04-16T02:16:02.709Z,13.23
2018-04-16T02:18:35.733Z,12.93
2018-04-16T02:21:09.790Z,11.37
2018-04-16T02:23:42.846Z,12.53
2018-04-16T02:26:16.630Z,13.87
2018-04-16T02:28:49.946Z,15.13
2018-04-16T02:31:22.935Z,13.93
2018-04-16T02:33:56.817Z,12.00
2018-04-16T02:36:29.882Z,13.77
2018-04-16T02:39:04.071Z,12.13
2018-04-16T02:41:37.475Z,12.70
2018-04-16T02:44:11.254Z,12.40
2018-04-16T02:46:44.403Z,10.97
2018-04-16T02:49:18.313Z,10.67
2018-04-16T02:51:51.502Z,11.87
2018-04-16T02:54:26.331Z,10.40
2018-04-16T02:56:59.395Z,11.17
2018-04-16T02:59:33.142Z,12.43
2018-04-16T03:02:06.393Z,12.50
2018-04-16T03:04:39.694Z,10.47
2018-04-16T03:07:12.790Z,11.43
2018-04-16T03:09:45.922Z,15.40
2018-04-16T03:12:19.434Z,10.53
2018-04-16T03:14:54.331Z,11.50
2018-04-16T03:17:28.067Z,14.10
2018-04-16T03:20:01.103Z,11.57
2018-04-16T03:22:34.319Z,10.90
2018-04-16T03:25:07.561Z,11.57
2018-04-16T03:27:40.764Z,11.20
2018-04-16T03:30:14.868Z,11.90
2018-04-16T03:32:48.840Z,10.37
2018-04-16T03:35:21.919Z,11.90
2018-04-16T03:37:55.205Z,13.20
2018-04-16T03:40:28.923Z,10.73
2018-04-16T03:43:02.022Z,13.70
2018-04-16T03:45:36.001Z,10.57
2018-04-16T03:48:09.961Z,12.30
2018-04-16T03:50:43.217Z,13.00
2018-04-16T03:53:16.366Z,12.90
2018-04-16T03:56:03.399Z,14.30
2018-04-16T03:58:31.666Z,11.83
2018-04-16T04:00:59.207Z,13.97
2018-04-16T04:03:26.773Z,12.97
2018-04-16T04:05:54.342Z,13.27
2018-04-16T04:08:21.879Z,12.83
2018-04-16T04:10:50.120Z,11.83
2018-04-16T04:13:18.484Z,14.87
2018-04-16T04:15:46.678Z,12.13
2018-04-16T04:18:14.207Z,12.13
2018-04-16T04:20:41.747Z,12.73
2018-04-16T04:23:21.010Z,13.50
2018-04-16T04:26:02.099Z,12.87
2018-04-16T04:31:36.067Z,13.07
2018-04-16T04:34:03.606Z,13.27
2018-04-16T04:36:31.142Z,12.90
2018-04-16T04:38:59.126Z,14.37
2018-04-16T04:41:26.651Z,11.83
2018-04-16T04:43:54.799Z,13.90
2018-04-16T04:46:22.333Z,14.80
2018-04-16T04:48:50.379Z,12.37
2018-04-16T04:51:17.937Z,13.13
2018-04-16T04:53:46.314Z,12.13
2018-04-16T04:56:13.857Z,15.80
2018-04-16T04:58:41.904Z,13.43
2018-04-16T05:01:09.463Z,12.07
2018-04-16T05:03:37.777Z,14.10
2018-04-16T05:06:05.471Z,13.20
2018-04-16T05:08:33.013Z,11.63
2018-04-16T05:11:01.517Z,13.67
2018-04-16T05:13:29.811Z,12.40
2018-04-16T05:15:57.833Z,11.27
2018-04-16T05:18:25.384Z,11.47
2018-04-16T05:20:52.951Z,12.83
2018-04-16T05:23:20.520Z,14.30
2018-04-16T05:25:48.066Z,19.37
2018-04-16T05:28:15.674Z,15.23
2018-04-16T05:30:43.361Z,17.73
2018-04-16T05:33:11.692Z,20.70
2018-04-16T05:35:39.753Z,19.73
2018-04-16T05:38:08.225Z,24.67
2018-04-16T05:40:35.778Z,20.20
2018-04-16T05:43:03.343Z,18.60
2018-04-16T05:45:31.365Z,19.37
2018-04-16T05:47:59.681Z,23.27
2018-04-16T05:50:27.238Z,18.70
2018-04-16T05:52:54.798Z,20.00
2018-04-16T05:55:23.100Z,18.07
2018-04-16T05:57:51.204Z,19.93
2018-04-16T06:00:18.877Z,20.50
2018-04-16T06:02:46.431Z,20.53
2018-04-16T06:05:14.009Z,21.83
2018-04-16T06:07:41.544Z,21.60
2018-04-16T06:10:09.890Z,20.17
2018-04-16T06:12:38.252Z,18.10
2018-04-16T06:15:06.425Z,17.27
2018-04-16T06:17:33.990Z,19.70
2018-04-16T06:20:01.646Z,20.10
2018-04-16T06:22:29.405Z,21.57
2018-04-16T06:24:56.992Z,19.23
2018-04-16T06:27:24.791Z,20.77
2018-04-16T06:29:52.441Z,21.73
2018-04-16T06:32:20.576Z,20.47
2018-04-16T06:34:48.105Z,19.50
2018-04-16T06:37:15.644Z,20.07
2018-04-16T06:39:43.870Z,20.27
2018-04-16T06:42:11.475Z,18.10
2018-04-16T06:44:39.700Z,20.03
2018-04-16T06:47:07.275Z,18.43
2018-04-16T06:49:35.267Z,20.30
2018-04-16T06:52:02.830Z,17.77
2018-04-16T06:54:30.783Z,15.30
2018-04-16T06:56:58.358Z,14.83
2018-04-16T06:59:26.847Z,15.43
2018-04-16T07:01:54.426Z,16.13
2018-04-16T07:04:21.981Z,17.23
2018-04-16T07:06:49.571Z,18.07
2018-04-16T07:09:17.721Z,16.43
2018-04-16T07:11:45.920Z,17.33
2018-04-16T07:14:14.011Z,17.47
2018-04-16T07:16:41.618Z,16.87
2018-04-16T07:19:10.125Z,16.30
2018-04-16T07:21:38.406Z,15.87
2018-04-16T07:24:05.988Z,18.83
2018-04-16T07:26:33.560Z,14.80
2018-04-16T07:29:01.145Z,17.10
2018-04-16T07:31:28.694Z,16.73
2018-04-16T07:33:56.748Z,16.63
2018-04-16T07:36:24.331Z,16.20
2018-04-16T07:38:52.792Z,15.10
2018-04-16T07:41:20.773Z,14.97
2018-04-16T07:43:48.973Z,15.90
2018-04-16T07:46:16.467Z,16.53
2018-04-16T07:48:44.558Z,13.33
2018-04-16T07:51:12.114Z,16.90
2018-04-16T07:53:40.368Z,15.40
2018-04-16T07:56:08.907Z,15.73
2018-04-16T07:58:38.013Z,16.17
2018-04-16T08:01:05.566Z,17.10
2018-04-16T08:03:33.153Z,17.17
2018-04-16T08:06:01.245Z,21.57
2018-04-16T08:08:28.795Z,17.30
2018-04-16T08:10:56.994Z,17.37
2018-04-16T08:13:25.139Z,16.73
2018-04-16T08:15:53.361Z,19.10
2018-04-16T08:18:20.921Z,16.23
2018-04-16T08:20:48.482Z,14.73
2018-04-16T08:23:16.106Z,16.73
2018-04-16T08:25:43.662Z,17.43
2018-04-16T08:28:11.240Z,16.57
2018-04-16T08:30:39.701Z,20.03
2018-04-16T08:33:08.760Z,15.73
2018-04-16T08:35:36.349Z,14.53
2018-04-16T08:38:05.074Z,15.77
2018-04-16T08:40:32.622Z,22.30
2018-04-16T08:43:00.178Z,19.23
2018-04-16T08:45:28.251Z,20.57
2018-04-16T08:47:56.217Z,14.00
2018-04-16T08:50:23.759Z,13.43
2018-04-16T08:52:51.310Z,14.10
2018-04-16T08:55:19.842Z,18.63
2018-04-16T08:57:47.679Z,13.67
2018-04-16T09:00:15.536Z,13.53
2018-04-16T09:02:43.623Z,15.07
2018-04-16T09:05:11.195Z,15.03
2018-04-16T09:07:39.055Z,11.87
2018-04-16T09:10:06.810Z,11.10
2018-04-16T09:12:35.136Z,11.30
2018-04-16T09:15:03.362Z,12.50
2018-04-16T09:17:30.920Z,10.53
2018-04-16T09:19:58.471Z,11.53
2018-04-16T09:22:26.031Z,9.50
2018-04-16T09:24:53.572Z,12.07
2018-04-16T09:27:21.722Z,10.83
2018-04-16T09:29:49.273Z,11.07
2018-04-16T09:32:17.297Z,9.40
2018-04-16T09:34:44.849Z,11.87
2018-04-16T09:37:12.379Z,10.13
2018-04-16T09:39:41.589Z,10.60
2018-04-16T09:42:09.199Z,12.13
2018-04-16T09:44:38.875Z,11.03
2018-04-16T09:47:08.034Z,10.70
2018-04-16T09:49:36.236Z,9.73
2018-04-16T09:52:03.786Z,8.07
2018-04-16T09:54:31.985Z,9.73
2018-04-16T09:56:59.529Z,9.03
2018-04-16T09:59:27.779Z,8.30
2018-04-16T10:01:56.000Z,9.00
2018-04-16T10:04:23.543Z,9.57
2018-04-16T10:06:51.074Z,8.63
2018-04-16T10:09:18.660Z,8.00
2018-04-16T10:11:46.954Z,9.33
2018-04-16T10:14:14.883Z,9.80
2018-04-16T10:16:42.479Z,8.37
2018-04-16T10:19:10.043Z,7.00
2018-04-16T10:21:38.346Z,9.07
2018-04-16T10:24:05.927Z,8.50
2018-04-16T10:26:33.475Z,8.97
2018-04-16T10:29:01.150Z,8.57
2018-04-16T10:31:28.708Z,7.93
2018-04-16T10:33:56.983Z,8.03
2018-04-16T10:36:24.523Z,9.97
2018-04-16T10:38:52.719Z,9.40
2018-04-16T10:41:20.275Z,7.70
2018-04-16T10:43:48.691Z,11.10
2018-04-16T10:46:16.251Z,8.97
2018-04-16T10:48:44.127Z,8.73
2018-04-16T10:51:11.670Z,9.83
2018-04-16T10:53:39.753Z,7.37
2018-04-16T10:56:08.074Z,9.80
2018-04-16T10:58:36.179Z,8.90
2018-04-16T11:01:03.732Z,11.53
2018-04-16T11:03:31.259Z,10.70
2018-04-16T11:05:58.870Z,9.87
2018-04-16T11:08:26.403Z,9.30
2018-04-16T11:10:54.774Z,13.77
2018-04-16T11:13:22.902Z,13.80
2018-04-16T11:15:51.379Z,9.90
2018-04-16T11:18:18.911Z,6.87
2018-04-16T11:20:46.438Z,7.00
2018-04-16T11:23:14.023Z,7.40
2018-04-16T11:25:41.604Z,7.23
2018-04-16T11:28:09.329Z,8.13
2018-04-16T11:30:37.165Z,8.03
2018-04-16T11:33:05.525Z,7.23
2018-04-16T11:35:33.060Z,6.17
2018-04-16T11:38:01.368Z,7.77
2018-04-16T11:40:28.886Z,6.27
2018-04-16T11:42:56.412Z,8.67
2018-04-16T11:45:24.647Z,6.93
2018-04-16T11:47:52.719Z,9.13
2018-04-16T11:50:20.290Z,8.80
2018-04-16T11:52:47.887Z,7.23
2018-04-16T11:55:15.989Z,7.30
2018-04-16T11:57:44.051Z,6.67
2018-04-16T12:00:12.255Z,6.53
2018-04-16T12:02:39.808Z,5.17
2018-04-16T12:05:07.592Z,7.40
2018-04-16T12:07:35.203Z,6.77
2018-04-16T12:10:02.743Z,6.10
2018-04-16T12:12:30.931Z,7.57
2018-04-16T12:14:59.356Z,6.27
2018-04-16T12:17:26.933Z,5.93
2018-04-16T12:19:54.491Z,7.37
2018-04-16T12:22:22.067Z,6.00
2018-04-16T12:24:49.711Z,6.13
2018-04-16T12:27:17.234Z,6.60
2018-04-16T12:29:44.811Z,5.53
2018-04-16T12:32:12.999Z,6.13
2018-04-16T12:34:40.540Z,5.50
2018-04-16T12:37:08.166Z,7.73
2018-04-16T12:39:36.394Z,6.13
2018-04-16T12:42:03.941Z,10.27
2018-04-16T12:44:32.338Z,6.07
2018-04-16T12:46:59.896Z,5.83
2018-04-16T12:49:28.526Z,6.20
2018-04-16T12:51:56.064Z,6.30
2018-04-16T12:54:24.515Z,6.87
2018-04-16T12:56:52.794Z,5.60
2018-04-16T12:59:21.473Z,6.73
2018-04-16T13:01:49.025Z,5.77
2018-04-16T13:04:16.548Z,6.00
2018-04-16T13:06:44.126Z,6.37
2018-04-16T13:09:11.648Z,6.67
2018-04-16T13:11:39.858Z,5.87
2018-04-16T13:14:09.191Z,6.33
2018-04-16T13:16:36.948Z,6.60
2018-04-16T13:19:04.617Z,4.70
2018-04-16T13:21:32.185Z,6.57
2018-04-16T13:23:59.722Z,4.10
2018-04-16T13:26:27.243Z,3.47
2018-04-16T13:28:55.116Z,4.50
2018-04-16T13:31:22.639Z,3.97
2018-04-16T13:33:50.871Z,4.27
2018-04-16T13:36:18.404Z,4.93
2018-04-16T13:38:46.734Z,3.60
2018-04-16T13:41:14.259Z,4.53
2018-04-16T13:43:43.469Z,4.40
2018-04-16T13:46:11.107Z,4.73
2018-04-16T13:48:39.256Z,4.00
2018-04-16T13:51:07.567Z,4.40
2018-04-16T13:53:35.107Z,4.40
2018-04-16T13:56:03.322Z,4.90
2018-04-16T13:58:31.418Z,5.53
2018-04-16T14:00:58.962Z,4.77
2018-04-16T14:03:26.497Z,5.63
2018-04-16T14:05:54.151Z,4.43
2018-04-16T14:08:21.672Z,4.83
2018-04-16T14:10:50.487Z,4.20
2018-04-16T14:13:18.607Z,7.27
2018-04-16T14:15:47.275Z,6.37
2018-04-16T14:18:14.796Z,5.47
2018-04-16T14:20:42.330Z,4.63
2018-04-16T14:23:09.895Z,5.60
2018-04-16T14:25:37.599Z,5.57
2018-04-16T14:28:05.174Z,5.63
2018-04-16T14:30:32.748Z,6.20
2018-04-16T14:33:00.731Z,5.27
2018-04-16T14:35:28.254Z,5.60
2018-04-16T14:37:55.785Z,7.67
2018-04-16T14:40:23.928Z,6.77
2018-04-16T14:42:51.470Z,5.50
2018-04-16T14:45:19.422Z,5.97
2018-04-16T14:47:47.870Z,6.23
2018-04-16T14:50:16.403Z,5.30
2018-04-16T14:52:43.938Z,5.40
2018-04-16T14:55:12.198Z,4.77
2018-04-16T14:57:39.769Z,5.17
2018-04-16T15:00:08.932Z,5.40
2018-04-16T15:02:36.471Z,5.23
2018-04-16T15:05:04.051Z,5.10
2018-04-16T15:07:31.626Z,4.03
2018-04-16T15:09:59.154Z,4.83
2018-04-16T15:12:28.218Z,4.20
2018-04-16T15:14:56.091Z,4.63
2018-04-16T15:17:23.610Z,4.50
2018-04-16T15:19:51.139Z,4.47
2018-04-16T15:22:18.694Z,5.20
2018-04-16T15:24:46.226Z,4.93
2018-04-16T15:27:13.757Z,5.47
2018-04-16T15:29:41.435Z,4.73
2018-04-16T15:32:10.428Z,6.40
2018-04-16T15:34:38.297Z,7.80
2018-04-16T15:37:05.826Z,6.30
2018-04-16T15:39:34.288Z,6.00
2018-04-16T15:42:01.822Z,6.20
2018-04-16T15:44:30.182Z,5.50
2018-04-16T15:46:58.294Z,6.00
2018-04-16T15:49:26.735Z,5.13
2018-04-16T15:51:54.265Z,5.17
2018-04-16T15:54:22.355Z,5.37
2018-04-16T15:56:49.904Z,6.03
2018-04-16T15:59:17.803Z,6.00
2018-04-16T16:01:45.342Z,5.80
2018-04-16T16:04:12.863Z,6.83
2018-04-16T16:06:40.453Z,5.50
2018-04-16T16:09:08.112Z,6.27
2018-04-16T16:11:36.297Z,5.73
2018-04-16T16:14:04.879Z,6.03
2018-04-16T16:16:32.795Z,7.93
2018-04-16T16:19:00.324Z,6.20
2018-04-16T16:21:27.861Z,7.43
2018-04-16T16:23:55.432Z,9.97
2018-04-16T16:26:23.689Z,8.40
2018-04-16T16:28:51.223Z,8.53
2018-04-16T16:31:18.751Z,7.17
2018-04-16T16:33:46.942Z,7.93
2018-04-16T16:36:14.587Z,7.30
2018-04-16T16:38:42.834Z,7.20
2018-04-16T16:41:10.377Z,7.90
2018-04-16T16:43:38.881Z,7.63
2018-04-16T16:46:06.461Z,6.83
2018-04-16T16:48:34.451Z,7.20
2018-04-16T16:51:01.970Z,6.70
2018-04-16T16:53:29.502Z,7.13
2018-04-16T16:55:57.901Z,10.37
2018-04-16T16:58:25.846Z,13.77
2018-04-16T17:00:53.384Z,9.37
2018-04-16T17:03:20.913Z,7.67
2018-04-16T17:05:48.478Z,7.33
2018-04-16T17:08:16.020Z,6.07
2018-04-16T17:10:44.311Z,8.30
2018-04-16T17:13:12.239Z,5.43
2018-04-16T17:15:40.285Z,6.80
2018-04-16T17:18:08.275Z,5.80
2018-04-16T17:20:35.844Z,6.10
2018-04-16T17:23:03.426Z,4.97
2018-04-16T17:25:30.954Z,6.33
2018-04-16T17:27:58.492Z,6.70
2018-04-16T17:30:26.049Z,6.30
2018-04-16T17:32:54.221Z,8.00
2018-04-16T17:35:21.781Z,6.67
2018-04-16T17:37:49.318Z,5.93
2018-04-16T17:40:17.420Z,6.03
2018-04-16T17:42:45.470Z,6.13
2018-04-16T17:45:13.547Z,6.13
2018-04-16T17:47:42.408Z,5.83
2018-04-16T17:50:09.931Z,6.10
2018-04-16T17:52:38.599Z,6.10
2018-04-16T17:55:06.833Z,5.90
2018-04-16T17:57:34.394Z,6.57
2018-04-16T18:00:02.646Z,6.60
2018-04-16T18:02:30.251Z,5.57
2018-04-16T18:04:57.786Z,7.13
2018-04-16T18:07:25.346Z,6.57
2018-04-16T18:09:52.888Z,6.73
2018-04-16T18:12:20.895Z,6.23
2018-04-16T18:14:49.111Z,6.53
2018-04-16T18:17:16.694Z,5.67
2018-04-16T18:19:44.222Z,5.90
2018-04-16T18:22:11.779Z,6.37
2018-04-16T18:24:39.378Z,5.97
2018-04-16T18:27:07.624Z,5.73
2018-04-16T18:29:35.264Z,5.07
2018-04-16T18:32:04.080Z,6.00
2018-04-16T18:34:31.610Z,5.00
2018-04-16T18:36:59.151Z,6.37
2018-04-16T18:39:27.410Z,6.70
2018-04-16T18:41:55.696Z,6.43
2018-04-16T18:44:23.992Z,7.87
2018-04-16T18:46:52.232Z,6.87
2018-04-16T18:49:20.175Z,5.17
2018-04-16T18:51:47.956Z,9.07
2018-04-16T18:54:16.633Z,5.60
2018-04-16T18:56:44.198Z,9.73
2018-04-16T18:59:12.110Z,6.00
2018-04-16T19:01:39.671Z,6.20
2018-04-16T19:04:07.387Z,13.80
2018-04-16T19:06:34.992Z,6.50
2018-04-16T19:09:02.585Z,9.17
2018-04-16T19:11:30.763Z,6.50
2018-04-16T19:13:58.975Z,7.93
2018-04-16T19:16:26.521Z,6.63
2018-04-16T19:18:54.047Z,9.93
2018-04-16T19:21:27.006Z,10.77
2018-04-16T19:23:54.560Z,8.23
2018-04-16T19:26:22.092Z,7.83
2018-04-16T19:28:49.735Z,8.90
2018-04-16T19:31:17.268Z,7.63
2018-04-16T19:33:51.256Z,7.67
2018-04-16T19:36:19.799Z,8.63
2018-04-16T19:38:48.065Z,8.30
2018-04-16T19:41:16.222Z,11.10
2018-04-16T19:43:44.507Z,8.53
2018-04-16T19:46:12.030Z,9.30
2018-04-16T19:48:45.720Z,7.97
2018-04-16T19:51:13.250Z,8.67
2018-04-16T19:53:41.534Z,9.60
2018-04-16T19:56:29.331Z,10.23
2018-04-16T19:58:57.535Z,8.17
2018-04-16T20:01:25.090Z,10.00
2018-04-16T20:03:58.303Z,8.30
2018-04-16T20:06:25.833Z,9.40
2018-04-16T20:08:53.363Z,8.90
2018-04-16T20:11:21.658Z,9.40
2018-04-16T20:13:49.833Z,9.27
2018-04-16T20:16:17.361Z,8.53
2018-04-16T20:18:44.924Z,8.47
2018-04-16T20:21:12.478Z,9.47
2018-04-16T20:23:40.013Z,9.17
2018-04-16T20:26:07.951Z,8.90
2018-04-16T20:28:35.518Z,9.73
2018-04-16T20:31:03.054Z,8.77
2018-04-16T20:33:31.421Z,9.97
2018-04-16T20:35:59.471Z,8.83
2018-04-16T20:38:27.804Z,10.70
2018-04-16T20:40:55.345Z,11.23
2018-04-16T20:43:23.216Z,12.00
2018-04-16T20:45:51.152Z,10.47
2018-04-16T20:48:19.039Z,11.63
2018-04-16T20:50:46.620Z,10.87
2018-04-16T20:53:14.135Z,10.43
2018-04-16T20:55:42.058Z,11.13
2018-04-16T20:58:10.433Z,11.27
2018-04-16T21:00:38.980Z,11.23
2018-04-16T21:03:06.580Z,10.00
2018-04-16T21:05:34.227Z,10.03
2018-04-16T21:08:01.770Z,10.73
2018-04-16T21:10:29.405Z,10.37
2018-04-16T21:12:57.700Z,12.87
2018-04-16T21:15:25.811Z,11.33
2018-04-16T21:17:53.394Z,12.13
2018-04-16T21:20:20.914Z,12.33
2018-04-16T21:22:48.564Z,11.43
2018-04-16T21:25:16.105Z,10.47
2018-04-16T21:27:43.869Z,11.37
2018-04-16T21:30:11.411Z,11.37
2018-04-16T21:32:40.243Z,11.43
2018-04-16T21:35:07.930Z,11.57
2018-04-16T21:37:35.463Z,10.77
2018-04-16T21:40:03.709Z,11.57
2018-04-16T21:42:31.875Z,12.47
2018-04-16T21:44:59.918Z,11.50
2018-04-16T21:47:28.458Z,12.43
2018-04-16T21:49:56.471Z,12.00
2018-04-16T21:52:24.008Z,13.33
2018-04-16T21:54:52.175Z,11.23
2018-04-16T21:57:19.713Z,11.70
2018-04-16T21:59:47.995Z,12.77
2018-04-16T22:02:15.541Z,15.03
2018-04-16T22:04:43.084Z,12.40
2018-04-16T22:07:10.645Z,11.63
2018-04-16T22:09:39.270Z,12.47
2018-04-16T22:12:07.736Z,12.40
2018-04-16T22:14:35.795Z,11.77
2018-04-16T22:17:03.335Z,11.83
2018-04-16T22:19:30.872Z,11.40
2018-04-16T22:21:58.439Z,15.93
2018-04-16T22:24:25.971Z,13.13
2018-04-16T22:26:53.518Z,10.70
2018-04-16T22:29:21.926Z,11.67
2018-04-16T22:31:50.968Z,12.17
2018-04-16T22:34:18.497Z,13.13
2018-04-16T22:36:46.034Z,10.20
2018-04-16T22:39:14.364Z,11.73
2018-04-16T22:41:41.899Z,13.03
2018-04-16T22:44:10.418Z,13.20
2018-04-16T22:46:38.204Z,12.30
2018-04-16T22:49:06.501Z,13.07
2018-04-16T22:51:34.087Z,12.27
2018-04-16T22:54:02.202Z,11.70
2018-04-16T22:56:29.754Z,11.83
2018-04-16T22:58:57.724Z,13.10
2018-04-16T23:01:25.285Z,15.00
2018-04-16T23:03:52.949Z,14.73
2018-04-16T23:06:20.517Z,15.03
2018-04-16T23:08:48.047Z,14.90
2018-04-16T23:11:16.211Z,14.57
2018-04-16T23:13:44.516Z,14.00
2018-04-16T23:16:12.051Z,13.13
2018-04-16T23:18:39.642Z,14.23
2018-04-16T23:21:07.487Z,15.03
2018-04-16T23:23:35.031Z,12.47
2018-04-16T23:26:03.495Z,16.13
2018-04-16T23:28:31.794Z,16.00
2018-04-16T23:30:59.318Z,16.13
2018-04-16T23:33:27.834Z,18.53
2018-04-16T23:35:55.389Z,17.23
2018-04-16T23:38:24.421Z,19.13
2018-04-16T23:40:52.042Z,17.57
2018-04-16T23:43:19.762Z,18.40
2018-04-16T23:45:47.999Z,16.77
2018-04-16T23:48:16.051Z,16.67
2018-04-16T23:50:43.577Z,14.03
2018-04-16T23:53:11.250Z,14.67
2018-04-16T23:55:39.397Z,16.20
2018-04-16T23:58:08.054Z,15.70
